Cheemaun — ZCGM9 — position and weather

sailwx.info

Track history (hours):
 
Tides and Currents Weather Stations Pressure Air Temp Water Temp Dewpoint Dewpoint Depression Visibility Wind Speed Wind Dir Waves Ship Positions

Cheemaun

Last reported at 2014-Sep-21 00:33 UTC. Time now 2014-Dec-18 14:29 UTC.
Position N 48°31' W 122°36'.
Warning: this ship's position is months out of date.

Length 20 m.

Type: Pleasure craft. MMSI: 319704000.

Date/timePositionNaut miles runAvg speedWind from/ knotsBaromVisibWave heightAir tempDewpointWater temp
2014-Sep-21 00:33N 48°31' W 122°36'8 7.8
2014-Sep-20 23:33N 48°32' W 122°47'6 6.3
2014-Sep-20 22:33N 48°33' W 122°57'3 2.7
2014-Sep-20 21:33N 48°32' W 123°01'0 0.0
2014-Sep-20 20:33N 48°32' W 123°01'0 0.5
2014-Sep-20 19:33N 48°33' W 123°00'7 6.7
2014-Sep-20 18:33N 48°33' W 122°50'8 8.1
2014-Sep-20 17:33N 48°31' W 122°38'  
2014-Sep-17 20:17N 48°31' W 122°36'0 0.0
2014-Sep-17 19:29N 48°31' W 122°36'0 0.2
2014-Sep-17 18:33N 48°31' W 122°36'0 0.0
2014-Sep-16 15:30N 48°31' W 122°36'0 0.0
2014-Sep-16 14:30N 48°31' W 122°36'0 0.0
2014-Sep-16 13:24N 48°31' W 122°36'0 0.0
2014-Sep-16 12:30N 48°31' W 122°36'0 0.0
2014-Sep-16 11:30N 48°31' W 122°36'0 0.0
2014-Sep-16 10:30N 48°31' W 122°36'0 0.0
2014-Sep-16 09:30N 48°31' W 122°36'0 0.0
2014-Sep-16 08:33N 48°31' W 122°36'0 0.0
2014-Sep-16 07:32N 48°31' W 122°36'0 0.0
2014-Sep-16 06:25N 48°31' W 122°36'0 0.0
2014-Sep-16 05:33N 48°31' W 122°36'0 0.0
2014-Sep-16 04:33N 48°31' W 122°36'0 0.0
2014-Sep-16 03:32N 48°31' W 122°36'0 0.0
2014-Sep-16 02:32N 48°31' W 122°36'0 0.0
2014-Sep-16 01:32N 48°31' W 122°36'0 0.0
2014-Sep-16 00:30N 48°31' W 122°36'0 0.0
2014-Sep-15 23:30N 48°31' W 122°36'0 0.0
2014-Sep-15 22:24N 48°31' W 122°36'0 0.0
2014-Sep-15 21:24N 48°31' W 122°36'0 0.0
2014-Sep-15 20:24N 48°31' W 122°36'0 0.0
2014-Sep-15 19:24N 48°31' W 122°36'0 0.0
2014-Sep-15 18:30N 48°31' W 122°36'0 0.0
2014-Sep-15 17:24N 48°31' W 122°36'0 0.0
2014-Sep-15 16:33N 48°31' W 122°36'0 0.0
2014-Sep-15 15:30N 48°31' W 122°36'0 0.0
2014-Sep-15 14:30N 48°31' W 122°36'0 0.0
2014-Sep-15 13:30N 48°31' W 122°36'0 0.0
2014-Sep-15 12:30N 48°31' W 122°36'0 0.0
2014-Sep-15 11:30N 48°31' W 122°36'0 0.0
2014-Sep-15 10:30N 48°31' W 122°36'0 0.0
2014-Sep-15 09:30N 48°31' W 122°36'0 0.0
2014-Sep-15 08:30N 48°31' W 122°36'0 0.0
2014-Sep-15 07:33N 48°31' W 122°36'0 0.0
2014-Sep-15 06:30N 48°31' W 122°36'0 0.0
2014-Sep-15 05:24N 48°31' W 122°36'0 0.0
2014-Sep-15 04:24N 48°31' W 122°36'0 0.0
2014-Sep-15 03:29N 48°31' W 122°36'0 0.0
2014-Sep-15 02:33N 48°31' W 122°36'0 0.0
2014-Sep-15 01:27N 48°31' W 122°36'0 0.0
2014-Sep-15 00:33N 48°31' W 122°36'0 0.0
2014-Sep-14 23:33N 48°31' W 122°36'0 0.0
2014-Sep-14 22:33N 48°31' W 122°36'0 0.0
2014-Sep-14 21:33N 48°31' W 122°36'0 0.0
2014-Sep-14 20:33N 48°31' W 122°36'0 0.0
2014-Sep-14 19:33N 48°31' W 122°36'0 0.0
2014-Sep-14 18:33N 48°31' W 122°36'0 0.0
2014-Sep-14 17:33N 48°31' W 122°36'0 0.0
2014-Sep-14 16:30N 48°31' W 122°36'0 0.0
2014-Sep-14 15:32N 48°31' W 122°36'0 0.0
2014-Sep-14 14:32N 48°31' W 122°36'0 0.0
2014-Sep-14 13:32N 48°31' W 122°36'0 0.0
2014-Sep-14 12:27N 48°31' W 122°36'0 0.0
2014-Sep-14 11:33N 48°31' W 122°36'0 0.0
2014-Sep-14 10:33N 48°31' W 122°36'0 0.0
2014-Sep-14 09:33N 48°31' W 122°36'0 0.0
2014-Sep-14 08:33N 48°31' W 122°36'0 0.0
2014-Sep-14 07:26N 48°31' W 122°36'0 0.0
2014-Sep-14 06:32N 48°31' W 122°36'0 0.0
2014-Sep-14 05:32N 48°31' W 122°36'0 0.0
2014-Sep-14 04:32N 48°31' W 122°36'0 0.0
2014-Sep-14 03:32N 48°31' W 122°36'0 0.0
2014-Sep-14 02:31N 48°31' W 122°36'0 0.0
2014-Sep-14 01:31N 48°31' W 122°36'0 0.0
2014-Sep-13 21:30N 48°31' W 122°36'0 0.0
2014-Sep-13 20:30N 48°31' W 122°36'0 0.0
2014-Sep-13 19:30N 48°31' W 122°36'0 0.0
2014-Sep-13 18:30N 48°31' W 122°36'0 0.0
2014-Sep-13 17:30N 48°31' W 122°36'0 0.0
2014-Sep-13 16:29N 48°31' W 122°36'0 0.0
2014-Sep-13 15:30N 48°31' W 122°36'0 0.0
2014-Sep-13 14:30N 48°31' W 122°36'0 0.0
2014-Sep-13 13:30N 48°31' W 122°36'0 0.0
2014-Sep-13 12:30N 48°31' W 122°36'0 0.0
2014-Sep-13 11:24N 48°31' W 122°36'0 0.0
2014-Sep-13 10:30N 48°31' W 122°36'0 0.0
2014-Sep-13 08:24N 48°31' W 122°36'0 0.0
2014-Sep-13 07:30N 48°31' W 122°36'0 0.0
2014-Sep-13 06:30N 48°31' W 122°36'0 0.0
2014-Sep-13 05:24N 48°31' W 122°36'0 0.0
2014-Sep-13 04:30N 48°31' W 122°36'0 0.0
2014-Sep-13 03:30N 48°31' W 122°36'0 0.0
2014-Sep-13 02:24N 48°31' W 122°36'0 0.0
2014-Sep-13 01:30N 48°31' W 122°36'0 0.0
2014-Sep-13 00:33N 48°31' W 122°36'0 0.0
2014-Sep-12 23:27N 48°31' W 122°36'0 0.0
2014-Sep-12 22:33N 48°31' W 122°36'0 0.0
2014-Sep-12 21:33N 48°31' W 122°36'0 0.0
2014-Sep-12 20:33N 48°31' W 122°36'0 0.0
2014-Sep-12 19:33N 48°31' W 122°36'0 0.0
2014-Sep-12 18:33N 48°31' W 122°36'0 0.0
2014-Sep-12 17:33N 48°31' W 122°36'0 0.0
2014-Sep-12 16:33N 48°31' W 122°36'0 0.0
2014-Sep-12 15:31N 48°31' W 122°36'0 0.0
2014-Sep-12 14:25N 48°31' W 122°36'0 0.0
2014-Sep-12 13:31N 48°31' W 122°36'0 0.0
2014-Sep-12 12:33N 48°31' W 122°36'0 0.0
2014-Sep-12 11:33N 48°31' W 122°36'0 0.0
2014-Sep-12 10:33N 48°31' W 122°36'0 0.0
2014-Sep-12 09:27N 48°31' W 122°36'0 0.0
2014-Sep-12 08:33N 48°31' W 122°36'0 0.0
2014-Sep-12 07:32N 48°31' W 122°36'0 0.0
2014-Sep-12 06:31N 48°31' W 122°36'0 0.0
2014-Sep-12 05:30N 48°31' W 122°36'0 0.0
2014-Sep-12 04:30N 48°31' W 122°36'0 0.0
2014-Sep-12 03:33N 48°31' W 122°36'0 0.0
2014-Sep-12 02:33N 48°31' W 122°36'0 0.0
2014-Sep-12 01:27N 48°31' W 122°36'0 0.0
2014-Sep-12 00:31N 48°31' W 122°36'0 0.0
2014-Sep-11 23:31N 48°31' W 122°36'0 0.0
2014-Sep-11 22:31N 48°31' W 122°36'0 0.0
2014-Sep-11 21:25N 48°31' W 122°36'  
Track history (hours):
 
Tides and Currents Weather Stations Pressure Air Temp Water Temp Dewpoint Dewpoint Depression Visibility Wind Speed Wind Dir Waves Ship Positions

Cheemaun

Last reported at 2014-Sep-21 00:33 UTC. Time now 2014-Dec-18 14:29 UTC.
Position N 48°31' W 122°36'.
Warning: this ship's position is months out of date.

Length 20 m.

Type: Pleasure craft. MMSI: 319704000.

Date/timePositionNaut miles runAvg speedWind from/ knotsBaromVisibWave heightAir tempDewpointWater temp
2014-Sep-21 00:33N 48°31' W 122°36'8 7.8
2014-Sep-20 23:33N 48°32' W 122°47'6 6.3
2014-Sep-20 22:33N 48°33' W 122°57'3 2.7
2014-Sep-20 21:33N 48°32' W 123°01'0 0.0
2014-Sep-20 20:33N 48°32' W 123°01'0 0.5
2014-Sep-20 19:33N 48°33' W 123°00'7 6.7
2014-Sep-20 18:33N 48°33' W 122°50'8 8.1
2014-Sep-20 17:33N 48°31' W 122°38'  
2014-Sep-17 20:17N 48°31' W 122°36'0 0.0
2014-Sep-17 19:29N 48°31' W 122°36'0 0.2
2014-Sep-17 18:33N 48°31' W 122°36'0 0.0
2014-Sep-16 15:30N 48°31' W 122°36'0 0.0
2014-Sep-16 14:30N 48°31' W 122°36'0 0.0
2014-Sep-16 13:24N 48°31' W 122°36'0 0.0
2014-Sep-16 12:30N 48°31' W 122°36'0 0.0
2014-Sep-16 11:30N 48°31' W 122°36'0 0.0
2014-Sep-16 10:30N 48°31' W 122°36'0 0.0
2014-Sep-16 09:30N 48°31' W 122°36'0 0.0
2014-Sep-16 08:33N 48°31' W 122°36'0 0.0
2014-Sep-16 07:32N 48°31' W 122°36'0 0.0
2014-Sep-16 06:25N 48°31' W 122°36'0 0.0
2014-Sep-16 05:33N 48°31' W 122°36'0 0.0
2014-Sep-16 04:33N 48°31' W 122°36'0 0.0
2014-Sep-16 03:32N 48°31' W 122°36'0 0.0
2014-Sep-16 02:32N 48°31' W 122°36'0 0.0
2014-Sep-16 01:32N 48°31' W 122°36'0 0.0
2014-Sep-16 00:30N 48°31' W 122°36'0 0.0
2014-Sep-15 23:30N 48°31' W 122°36'0 0.0
2014-Sep-15 22:24N 48°31' W 122°36'0 0.0
2014-Sep-15 21:24N 48°31' W 122°36'0 0.0
2014-Sep-15 20:24N 48°31' W 122°36'0 0.0
2014-Sep-15 19:24N 48°31' W 122°36'0 0.0
2014-Sep-15 18:30N 48°31' W 122°36'0 0.0
2014-Sep-15 17:24N 48°31' W 122°36'0 0.0
2014-Sep-15 16:33N 48°31' W 122°36'0 0.0
2014-Sep-15 15:30N 48°31' W 122°36'0 0.0
2014-Sep-15 14:30N 48°31' W 122°36'0 0.0
2014-Sep-15 13:30N 48°31' W 122°36'0 0.0
2014-Sep-15 12:30N 48°31' W 122°36'0 0.0
2014-Sep-15 11:30N 48°31' W 122°36'0 0.0
2014-Sep-15 10:30N 48°31' W 122°36'0 0.0
2014-Sep-15 09:30N 48°31' W 122°36'0 0.0
2014-Sep-15 08:30N 48°31' W 122°36'0 0.0
2014-Sep-15 07:33N 48°31' W 122°36'0 0.0
2014-Sep-15 06:30N 48°31' W 122°36'0 0.0
2014-Sep-15 05:24N 48°31' W 122°36'0 0.0
2014-Sep-15 04:24N 48°31' W 122°36'0 0.0
2014-Sep-15 03:29N 48°31' W 122°36'0 0.0
2014-Sep-15 02:33N 48°31' W 122°36'0 0.0
2014-Sep-15 01:27N 48°31' W 122°36'0 0.0
2014-Sep-15 00:33N 48°31' W 122°36'0 0.0
2014-Sep-14 23:33N 48°31' W 122°36'0 0.0
2014-Sep-14 22:33N 48°31' W 122°36'0 0.0
2014-Sep-14 21:33N 48°31' W 122°36'0 0.0
2014-Sep-14 20:33N 48°31' W 122°36'0 0.0
2014-Sep-14 19:33N 48°31' W 122°36'0 0.0
2014-Sep-14 18:33N 48°31' W 122°36'0 0.0
2014-Sep-14 17:33N 48°31' W 122°36'0 0.0
2014-Sep-14 16:30N 48°31' W 122°36'0 0.0
2014-Sep-14 15:32N 48°31' W 122°36'0 0.0
2014-Sep-14 14:32N 48°31' W 122°36'0 0.0
2014-Sep-14 13:32N 48°31' W 122°36'0 0.0
2014-Sep-14 12:27N 48°31' W 122°36'0 0.0
2014-Sep-14 11:33N 48°31' W 122°36'0 0.0
2014-Sep-14 10:33N 48°31' W 122°36'0 0.0
2014-Sep-14 09:33N 48°31' W 122°36'0 0.0
2014-Sep-14 08:33N 48°31' W 122°36'0 0.0
2014-Sep-14 07:26N 48°31' W 122°36'0 0.0
2014-Sep-14 06:32N 48°31' W 122°36'0 0.0
2014-Sep-14 05:32N 48°31' W 122°36'0 0.0
2014-Sep-14 04:32N 48°31' W 122°36'0 0.0
2014-Sep-14 03:32N 48°31' W 122°36'0 0.0
2014-Sep-14 02:31N 48°31' W 122°36'0 0.0
2014-Sep-14 01:31N 48°31' W 122°36'0 0.0
2014-Sep-13 21:30N 48°31' W 122°36'0 0.0
2014-Sep-13 20:30N 48°31' W 122°36'0 0.0
2014-Sep-13 19:30N 48°31' W 122°36'0 0.0
2014-Sep-13 18:30N 48°31' W 122°36'0 0.0
2014-Sep-13 17:30N 48°31' W 122°36'0 0.0
2014-Sep-13 16:29N 48°31' W 122°36'0 0.0
2014-Sep-13 15:30N 48°31' W 122°36'0 0.0
2014-Sep-13 14:30N 48°31' W 122°36'0 0.0
2014-Sep-13 13:30N 48°31' W 122°36'0 0.0
2014-Sep-13 12:30N 48°31' W 122°36'0 0.0
2014-Sep-13 11:24N 48°31' W 122°36'0 0.0
2014-Sep-13 10:30N 48°31' W 122°36'0 0.0
2014-Sep-13 08:24N 48°31' W 122°36'0 0.0
2014-Sep-13 07:30N 48°31' W 122°36'0 0.0
2014-Sep-13 06:30N 48°31' W 122°36'0 0.0
2014-Sep-13 05:24N 48°31' W 122°36'0 0.0
2014-Sep-13 04:30N 48°31' W 122°36'0 0.0
2014-Sep-13 03:30N 48°31' W 122°36'0 0.0
2014-Sep-13 02:24N 48°31' W 122°36'0 0.0
2014-Sep-13 01:30N 48°31' W 122°36'0 0.0
2014-Sep-13 00:33N 48°31' W 122°36'0 0.0
2014-Sep-12 23:27N 48°31' W 122°36'0 0.0
2014-Sep-12 22:33N 48°31' W 122°36'0 0.0
2014-Sep-12 21:33N 48°31' W 122°36'0 0.0
2014-Sep-12 20:33N 48°31' W 122°36'0 0.0
2014-Sep-12 19:33N 48°31' W 122°36'0 0.0
2014-Sep-12 18:33N 48°31' W 122°36'0 0.0
2014-Sep-12 17:33N 48°31' W 122°36'0 0.0
2014-Sep-12 16:33N 48°31' W 122°36'0 0.0
2014-Sep-12 15:31N 48°31' W 122°36'0 0.0
2014-Sep-12 14:25N 48°31' W 122°36'0 0.0
2014-Sep-12 13:31N 48°31' W 122°36'0 0.0
2014-Sep-12 12:33N 48°31' W 122°36'0 0.0
2014-Sep-12 11:33N 48°31' W 122°36'0 0.0
2014-Sep-12 10:33N 48°31' W 122°36'0 0.0
2014-Sep-12 09:27N 48°31' W 122°36'0 0.0
2014-Sep-12 08:33N 48°31' W 122°36'0 0.0
2014-Sep-12 07:32N 48°31' W 122°36'0 0.0
2014-Sep-12 06:31N 48°31' W 122°36'0 0.0
2014-Sep-12 05:30N 48°31' W 122°36'0 0.0
2014-Sep-12 04:30N 48°31' W 122°36'0 0.0
2014-Sep-12 03:33N 48°31' W 122°36'0 0.0
2014-Sep-12 02:33N 48°31' W 122°36'0 0.0
2014-Sep-12 01:27N 48°31' W 122°36'0 0.0
2014-Sep-12 00:31N 48°31' W 122°36'0 0.0
2014-Sep-11 23:31N 48°31' W 122°36'0 0.0
2014-Sep-11 22:31N 48°31' W 122°36'0 0.0
2014-Sep-11 21:25N 48°31' W 122°36'  

Dump ship's entire track history